Map

Track Data

SID SEASON NUMBER BASIN SUBBASIN NAME ISO_TIME NATURE LAT LON WMO_WIND WMO_PRES WMO_AGENCY TRACK_TYPE DIST2LAND LANDFALL IFLAG USA_AGENCY USA_ATCF_ID USA_LAT USA_LON USA_RECORD USA_STATUS USA_WIND USA_PRES USA_SSHS USA_R34_NE USA_R34_SE USA_R34_SW USA_R34_NW USA_R50_NE USA_R50_SE USA_R50_SW USA_R50_NW USA_R64_NE USA_R64_SE USA_R64_SW USA_R64_NW USA_POCI USA_ROCI USA_RMW USA_EYE TOKYO_LAT TOKYO_LON TOKYO_GRADE TOKYO_WIND TOKYO_PRES TOKYO_R50_DIR TOKYO_R50_LONG TOKYO_R50_SHORT TOKYO_R30_DIR TOKYO_R30_LONG TOKYO_R30_SHORT TOKYO_LAND CMA_LAT CMA_LON CMA_CAT CMA_WIND CMA_PRES HKO_LAT HKO_LON HKO_CAT HKO_WIND HKO_PRES NEWDELHI_LAT NEWDELHI_LON NEWDELHI_GRADE NEWDELHI_WIND NEWDELHI_PRES NEWDELHI_CI NEWDELHI_DP NEWDELHI_POCI REUNION_LAT REUNION_LON REUNION_TYPE REUNION_WIND REUNION_PRES REUNION_TNUM REUNION_CI REUNION_RMW REUNION_R34_NE REUNION_R34_SE REUNION_R34_SW REUNION_R34_NW REUNION_R50_NE REUNION_R50_SE REUNION_R50_SW REUNION_R50_NW REUNION_R64_NE REUNION_R64_SE REUNION_R64_SW REUNION_R64_NW BOM_LAT BOM_LON BOM_TYPE BOM_WIND BOM_PRES BOM_TNUM BOM_CI BOM_RMW BOM_R34_NE BOM_R34_SE BOM_R34_SW BOM_R34_NW BOM_R50_NE BOM_R50_SE BOM_R50_SW BOM_R50_NW BOM_R64_NE BOM_R64_SE BOM_R64_SW BOM_R64_NW BOM_ROCI BOM_POCI BOM_EYE BOM_POS_METHOD BOM_PRES_METHOD NADI_LAT NADI_LON NADI_CAT NADI_WIND NADI_PRES WELLINGTON_LAT WELLINGTON_LON WELLINGTON_WIND WELLINGTON_PRES DS824_LAT DS824_LON DS824_STAGE DS824_WIND DS824_PRES TD9636_LAT TD9636_LON TD9636_STAGE TD9636_WIND TD9636_PRES TD9635_LAT TD9635_LON TD9635_WIND TD9635_PRES TD9635_ROCI NEUMANN_LAT NEUMANN_LON NEUMANN_CLASS NEUMANN_WIND NEUMANN_PRES MLC_LAT MLC_LON MLC_CLASS MLC_WIND MLC_PRES USA_GUST BOM_GUST BOM_GUST_PER REUNION_GUST REUNION_GUST_PER USA_SEAHGT USA_SEARAD_NE USA_SEARAD_SE USA_SEARAD_SW USA_SEARAD_NW STORM_SPEED STORM_DIR
1925249N20088 1925 46 NI BB NOT_NAMED 1925-09-06 00:00:00 TS 20.3000 88.4000 main 145 134 _________O____ -1 20.3000 88.4000 TC 30 3 336
1925249N20088 1925 46 NI BB NOT_NAMED 1925-09-06 03:00:00 TS 20.4400 88.3334 main 134 111 _________PO___ -1 20.5100 88.3001 TC 30 20.3000 88.4000 1 4 334
1925249N20088 1925 46 NI BB NOT_NAMED 1925-09-06 06:00:00 TS 20.6251 88.2298 main 111 89 _________OP___ -1 20.7000 88.2000 TC 30 20.5128 88.2744 1 4 331
1925249N20088 1925 46 NI BB NOT_NAMED 1925-09-06 09:00:00 TS 20.7945 88.1252 main 90 78 _________PP___ -1 20.8575 88.1000 TC 30 20.7105 88.1589 1 4 329
1925249N20088 1925 46 NI BB NOT_NAMED 1925-09-06 12:00:00 TS 20.9389 88.0320 main 80 59 _________OP___ -1 21.0000 88.0000 TC 30 20.8779 88.0639 1 3 330
1925249N20088 1925 46 NI BB NOT_NAMED 1925-09-06 15:00:00 TS 21.0787 87.9500 main 59 54 _________PO___ -1 21.1575 87.9000 TC 30 21.0000 88.0000 1 3 331
1925249N20088 1925 46 NI BB NOT_NAMED 1925-09-06 18:00:00 TS 21.1869 87.8837 main 54 54 _________OP___ -1 21.3000 87.8000 TC 30 21.0738 87.9674 1 2 329
1925249N20088 1925 46 NI BB NOT_NAMED 1925-09-06 21:00:00 TS 21.2418 87.8419 main 55 33 _________PP___ -1 21.3397 87.7593 TC 30 21.1439 87.9246 1 3 320
1925249N20088 1925 46 NI BB NOT_NAMED 1925-09-07 00:00:00 TS 21.3836 87.7098 main 33 0 _________OP___ -1 21.5000 87.6000 TC 30 21.2671 87.8196 1 7 320
1925249N20088 1925 46 NI BB NOT_NAMED 1925-09-07 03:00:00 TS 21.7451 87.3840 main 0 0 _________PO___ -1 21.9902 87.1681 TC 30 21.5000 87.6000 1 12 320
1925249N20088 1925 46 NI BB NOT_NAMED 1925-09-07 06:00:00 TS 22.2654 86.9076 main 0 0 _________OP___ -1 22.6000 86.6000 TC 30 21.9307 87.2152 1 14 319
1925249N20088 1925 46 NI BB NOT_NAMED 1925-09-07 09:00:00 TS 22.7914 86.3872 main 0 0 _________PP___ -1 23.1148 86.0646 TC 30 22.4681 86.7099 1 15 316
1925249N20088 1925 46 NI BB NOT_NAMED 1925-09-07 12:00:00 TS 23.3231 85.8121 main 0 0 _________OP___ -1 23.6000 85.5000 TC 30 23.0462 86.1243 1 15 314
1925249N20088 1925 46 NI BB NOT_NAMED 1925-09-07 15:00:00 TS 23.8361 85.2074 main 0 0 _________PO___ -1 24.0723 84.9147 TC 30 23.6000 85.5000 1 15 310
1925249N20088 1925 46 NI BB NOT_NAMED 1925-09-07 18:00:00 TS 24.2950 84.5661 main 0 0 _________OP___ -1 24.5000 84.3000 TC 30 24.0901 84.8321 1 15 306
1925249N20088 1925 46 NI BB NOT_NAMED 1925-09-07 21:00:00 TS 24.7200 83.8651 main 0 0 _________PP___ -1 24.9030 83.5829 TC 30 24.5370 84.1473 1 14 303
1925249N20088 1925 46 NI BB NOT_NAMED 1925-09-08 00:00:00 TS 25.0576 83.2568 main 0 0 _________OP___ -1 25.2000 83.0000 TC 30 24.9152 83.5136 1 10 302
1925249N20088 1925 46 NI BB NOT_NAMED 1925-09-08 03:00:00 TS 25.2722 82.8909 main 0 0 _________PO___ -1 25.3445 82.7819 TC 30 25.2000 83.0000 1 6 303
1925249N20088 1925 46 NI BB NOT_NAMED 1925-09-08 06:00:00 TS 25.3854 82.6986 main 0 0 _________OP___ -1 25.4000 82.7000 TC 30 25.3707 82.6973 1 4 298
1925249N20088 1925 46 NI BB NOT_NAMED 1925-09-08 09:00:00 TS 25.4552 82.5136 main 0 0 _________PP___ -1 25.4575 82.5075 TC 30 25.4530 82.5198 1 3 289
1925249N20088 1925 46 NI BB NOT_NAMED 1925-09-08 12:00:00 TS 25.4919 82.3537 main 0 0 _________OP___ -1 25.5000 82.3000 TC 30 25.4838 82.4075 1 3 284
1925249N20088 1925 46 NI BB NOT_NAMED 1925-09-08 15:00:00 TS 25.5250 82.2000 main 0 0 _________PO___ -1 25.5500 82.1000 TC 30 25.5000 82.3000 1 3 284
1925249N20088 1925 46 NI BB NOT_NAMED 1925-09-08 18:00:00 TS 25.5607 82.0423 main 0 0 _________OP___ -1 25.6000 81.9000 TC 30 25.5312 82.1491 1 3 285
1925249N20088 1925 46 NI BB NOT_NAMED 1925-09-08 21:00:00 TS 25.6072 81.8537 main 0 0 _________PP___ -1 25.6501 81.7000 TC 30 25.5786 81.9562 1 4 286
1925249N20088 1925 46 NI BB NOT_NAMED 1925-09-09 00:00:00 TS 25.6578 81.6568 main 0 0 _________OP___ -1 25.7000 81.5000 TC 30 25.6368 81.7352 1 3 286
1925249N20088 1925 46 NI BB NOT_NAMED 1925-09-09 03:00:00 NR 25.7000 81.5000 main 0 __________O___ -1 TC 25.7000 81.5000 1 3 287

About IBTrACS Database

This database is a web-friendly format of International Best Track Archive for Climate Stewardship (IBTrACS), a global best track data archive curated by NOAA dating back to 1842.

Updated: 2021-12-01